Metar Cercanos

 

LEPA - Palma De Mallorc, Spain
Distance from station: ONO 38km
Actualización: Mon, 27-Sep-2021 6:00pm CEST
Few Clouds
Few Clouds
 Viento del SO
Viento: SO 20 km/h
Temperatura: 27°C
Indice Calor: 28°C
Rocío: 19°C
Humedad: 62%
Barómetro: 1019 hPa
Clouds: Few Clouds
Visibility: 10 km
Cloud details: Few Clouds 1829 m
2021/09/27 16:00 LEPA 271600Z 23011KT 9999 FEW060 27/19 Q1019 NOSIG
LEMH - Mahon/Menorca Is, Spain
Distance from station: ENE 105km
Actualización: Mon, 27-Sep-2021 6:00pm CEST
Few Clouds
Few Clouds
 Viento del OSO
Viento: OSO 13 km/h
Temperatura: 25°C
Rocío: 18°C
Humedad: 65%
Barómetro: 1020 hPa
Clouds: Few Clouds
Visibility: 10 km
Cloud details: Few Clouds 975 m
2021/09/27 16:00 LEMH 271600Z 25007KT 220V280 9999 FEW032 25/18 Q1020
 
LEIB - Ibiza/Es Codola, Spain
Distance from station: OSO 165km
Actualización: Mon, 27-Sep-2021 6:00pm CEST
Despejado
Despejado
 Viento del SO
Viento: SO 15 km/h
Temperatura: 26°C
Rocío: 20°C
Humedad: 70%
Barómetro: 1019 hPa
Resumen: Despejado
Visibility: greater than 10 km
2021/09/27 16:00 LEIB 271600Z 23008KT 200V270 CAVOK 26/20 Q1019 NOSIG
LEBL - Barcelona Airpor, Spain
Distance from station: NNO 225km
Actualización: Mon, 27-Sep-2021 6:00pm CEST
Few Clouds
Few Clouds
 Viento del SO
Viento: SO 20 km/h
Temperatura: 26°C
Rocío: 19°C
Humedad: 65%
Barómetro: 1019 hPa
Clouds: Few Clouds
Visibility: 10 km
Cloud details: Few Clouds 610 m
2021/09/27 16:00 LEBL 271600Z 22011KT 9999 FEW020 26/19 Q1019 NOSIG
 
LEVC - Valencia (civ/Mi, Spain
Distance from station: NO 188km
Actualización: Mon, 27-Sep-2021 6:00pm CEST
Despejado
Despejado
 Viento del ESE
Viento: ESE 17 km/h
Temperatura: 27°C
Indice Calor: 28°C
Rocío: 19°C
Humedad: 62%
Barómetro: 1019 hPa
Resumen: Despejado
Visibility: greater than 10 km
2021/09/27 16:00 LEVC 271600Z 11009KT 070V140 CAVOK 27/19 Q1019 NOSIG
LEGE - Gerona/Costa Bra, Spain
Distance from station: N 276km
Actualización: Mon, 27-Sep-2021 5:30pm CEST
Despejado
Despejado
 Viento del SSE
Viento: SSE 6 km/h
Temperatura: 27°C
Indice Calor: 28°C
Rocío: 16°C
Humedad: 51%
Barómetro: 1019 hPa
Resumen: Despejado
Visibility: greater than 10 km
2021/09/27 15:30 LEGE 271530Z 15003KT CAVOK 27/16 Q1019
 
LEAL - Alicante/El Alte, Spain
Distance from station: OSO 344km
Actualización: Mon, 27-Sep-2021 6:00pm CEST
Despejado
Despejado
 Viento del S
Viento: S 15 km/h
Temperatura: 28°C
Indice Calor: 27°C
Rocío: 13°C
Humedad: 40%
Barómetro: 1019 hPa
Resumen: Despejado
Visibility: greater than 10 km
2021/09/27 16:00 LEAL 271600Z 18008KT 100V230 CAVOK 28/13 Q1019 NOSIG
LEAM - Almeria Airport, Spain
Distance from station: SSO 56km
Actualización: Mon, 27-Sep-2021 6:00pm CEST
Despejado
Despejado
 Viento del SSO
Viento: SSO 11 km/h
Temperatura: 26°C
Rocío: 19°C
Humedad: 65%
Barómetro: 1020 hPa
Resumen: Despejado
Visibility: greater than 10 km
2021/09/27 16:00 LEAM 271600Z 20006KT 160V250 CAVOK 26/19 Q1020
 
LEZG - Zaragoza (mil/Ci, Spain
Distance from station: NO 431km
Actualización: Mon, 27-Sep-2021 6:00pm CEST
Despejado
Despejado
 Viento del ONO
Viento: ONO 22 km/h
Temperatura: 27°C
Rocío: 11°C
Humedad: 37%
Barómetro: 1020 hPa
Resumen: Despejado
Visibility: greater than 10 km
2021/09/27 16:00 LEZG 271600Z 30012KT CAVOK 27/11 Q1020
LEMD - Madrid/Barajas, Spain
Distance from station: ONO 234km
Actualización: Mon, 27-Sep-2021 6:00pm CEST
Despejado
Despejado
 Viento del varies
Viento: varies 4 km/h
Temperatura: 26°C
Rocío: 10°C
Humedad: 37%
Barómetro: 1022 hPa
Resumen: Despejado
Visibility: greater than 10 km
2021/09/27 16:00 LEMD 271600Z VRB02KT CAVOK 26/10 Q1022 NOSIG
 
LEGR - Granada Airport, Spain
Distance from station: OSO 62km
Actualización: Mon, 27-Sep-2021 6:00pm CEST
Despejado
Despejado
 Viento del O
Viento: O 15 km/h
Temperatura: 31°C
Rocío: 2°C
Humedad: 16%
Barómetro: 1021 hPa
Resumen: Despejado
Visibility: greater than 10 km
2021/09/27 16:00 LEGR 271600Z 27008KT CAVOK 31/02 Q1021
LEMG - Malaga (civ/Mil), Spain
Distance from station: OSO 227km
Actualización: Mon, 27-Sep-2021 6:00pm CEST
Despejado
Despejado
 Viento del ESE
Viento: ESE 19 km/h
Temperatura: 26°C
Rocío: 17°C
Humedad: 58%
Barómetro: 1019 hPa
Resumen: Despejado
Visibility: greater than 10 km
2021/09/27 16:00 LEMG 271600Z 12010KT 090V150 CAVOK 26/17 Q1019 NOSIG
 
LEZL - Sevilla (civ/Mil, Spain
Distance from station: S 318km
Actualización: Mon, 27-Sep-2021 6:00pm CEST
Despejado
Despejado
 Viento del O
Viento: O 7 km/h
Temperatura: 30°C
Rocío: 10°C
Humedad: 29%
Barómetro: 1019 hPa
Resumen: Despejado
Visibility: greater than 10 km
2021/09/27 16:00 LEZL 271600Z 27004KT CAVOK 30/10 Q1019 NOSIG
LEVT - Vitoria, Spain
Distance from station: NO 226km
Actualización: Mon, 27-Sep-2021 6:00pm CEST
Muy nuboso
Muy nuboso
 Viento del NNE
Viento: NNE 22 km/h
Temperatura: 16°C
Rocío: 13°C
Humedad: 83%
Barómetro: 1025 hPa
Clouds: Muy nuboso
Visibility: 10 km
Cloud details: Parcialmente nuboso 701 m
Muy nuboso 1341 m
2021/09/27 16:00 LEVT 271600Z 03012KT 9999 SCT023 BKN044 16/13 Q1025
 
LEBB - Bilbao/Sondica, Spain
Distance from station: NNO 235km
Actualización: Mon, 27-Sep-2021 6:00pm CEST
Muy nuboso
Muy nuboso
 Viento del NO
Viento: NO 9 km/h
Temperatura: 19°C
Rocío: 15°C
Humedad: 78%
Barómetro: 1025 hPa
Clouds: Muy nuboso
Visibility: 10 km
Cloud details: Few Clouds 762 m
Muy nuboso 1280 m
2021/09/27 16:00 LEBB 271600Z 31005KT 280V350 9999 FEW025 BKN042 19/15 Q1025 NOSIG
LESO - San Sebastian/Fu, Spain
Distance from station: N 231km
Actualización: Mon, 27-Sep-2021 6:00pm CEST
Cubierto
Cubierto
 Viento del SO
Viento: SO 7 km/h
Temperatura: 19°C
Rocío: 16°C
Humedad: 83%
Barómetro: 1025 hPa
Clouds: Cubierto
Visibility: 10 km
Cloud details: Parcialmente nuboso 975 m
Cubierto 1433 m
2021/09/27 16:00 LESO 271600Z 23004KT 200V260 9999 SCT032 OVC047 19/16 Q1025
 
LEVD - Valladolid(Mil/C, Spain
Distance from station: ONO 239km
Actualización: Mon, 27-Sep-2021 6:00pm CEST
Muy nuboso
Muy nuboso
 Viento del S
Viento: S 7 km/h
Temperatura: 20°C
Rocío: 13°C
Humedad: 64%
Barómetro: 1024 hPa
Clouds: Muy nuboso
Visibility: 10 km
Cloud details: Muy nuboso 1128 m
2021/09/27 16:00 LEVD 271600Z 18004KT 150V220 9999 BKN037 20/13 Q1024
LESA - Salamanca (civ/M, Spain
Distance from station: ONO 349km
Actualización: Mon, 27-Sep-2021 6:00pm CEST
Parcialmente nuboso
Parcialmente nuboso
 Viento del varies
Viento: varies 4 km/h
Temperatura: 22°C
Rocío: 13°C
Humedad: 57%
Barómetro: 1024 hPa
Clouds: Parcialmente nuboso
Visibility: 10 km
Cloud details: Parcialmente nuboso 914 m
2021/09/27 16:00 LESA 271600Z VRB02KT 9999 SCT030 22/13 Q1024
 
LEXJ - Santander/Paraya, Spain
Distance from station: NNO 247km
Actualización: Mon, 27-Sep-2021 6:00pm CEST
Cubierto
Cubierto
 Viento del SO
Viento: SO 6 km/h
Temperatura: 17°C
Rocío: 14°C
Humedad: 83%
Barómetro: 1025 hPa
Clouds: Cubierto
Visibility: 10 km
Cloud details: Few Clouds 610 m
Cubierto 1402 m
2021/09/27 16:00 LEXJ 271600Z 22003KT 180V270 9999 FEW020 OVC046 17/14 Q1025
LEAS - Asturias/Aviles, Spain
Distance from station: NO 214km
Actualización: Mon, 27-Sep-2021 6:00pm CEST
Muy nuboso
Muy nuboso
 Viento del NO
Viento: NO 6 km/h
Temperatura: 17°C
Rocío: 11°C
Humedad: 68%
Barómetro: 1025 hPa
Clouds: Muy nuboso
Visibility: 10 km
Cloud details: Few Clouds 762 m
Muy nuboso 1524 m
2021/09/27 16:00 LEAS 271600Z 32003KT 280V030 9999 FEW025 BKN050 17/11 Q1025 NOSIG
 
LECO - La Coruna/Alvedr, Spain
Distance from station: ONO 222km
Actualización: Mon, 27-Sep-2021 6:00pm CEST
Despejado
Despejado
 Viento del N
Viento: N 11 km/h
Temperatura: 19°C
Rocío: 10°C
Humedad: 56%
Barómetro: 1024 hPa
Resumen: Despejado
Visibility: greater than 10 km
2021/09/27 16:00 LECO 271600Z 01006KT 330V050 CAVOK 19/10 Q1024 NOSIG
LEVX - Vigo/Peinador, Spain
Distance from station: O 214km
Actualización: Mon, 27-Sep-2021 6:00pm CEST
Few Clouds
Few Clouds
 Viento del O
Viento: O 15 km/h
Temperatura: 20°C
Rocío: 13°C
Humedad: 64%
Barómetro: 1023 hPa
Clouds: Few Clouds
Visibility: 10 km
Cloud details: Few Clouds 914 m
2021/09/27 16:00 LEVX 271600Z 28008KT 230V320 9999 FEW030 20/13 Q1023 NOSIG